createdAt,value
2022-09-21T00:01:15.346Z,100.00
2022-09-21T00:03:42.453Z,100.00
2022-09-21T00:06:10.950Z,100.00
2022-09-21T00:08:37.620Z,100.00
2022-09-21T00:11:05.556Z,100.00
2022-09-21T00:13:33.413Z,100.00
2022-09-21T00:16:00.089Z,100.00
2022-09-21T00:18:26.643Z,100.00
2022-09-21T00:20:53.200Z,100.00
2022-09-21T00:23:20.346Z,100.00
2022-09-21T00:25:46.922Z,100.00
2022-09-21T00:28:13.318Z,100.00
2022-09-21T00:30:39.788Z,100.00
2022-09-21T00:33:06.945Z,100.00
2022-09-21T00:35:33.618Z,100.00
2022-09-21T00:38:04.040Z,100.00
2022-09-21T00:40:30.744Z,100.00
2022-09-21T00:43:14.392Z,100.00
2022-09-21T00:45:41.307Z,100.00
2022-09-21T00:48:07.887Z,100.00
2022-09-21T00:50:35.476Z,100.00
2022-09-21T00:53:04.424Z,100.00
2022-09-21T00:55:41.894Z,100.00
2022-09-21T00:58:15.590Z,100.00
2022-09-21T01:00:43.483Z,100.00
2022-09-21T01:03:10.949Z,100.00
2022-09-21T01:05:37.447Z,100.00
2022-09-21T01:08:06.918Z,100.00
2022-09-21T01:11:08.365Z,100.00
2022-09-21T01:13:46.768Z,100.00
2022-09-21T01:16:44.855Z,100.00
2022-09-21T01:19:13.918Z,100.00
2022-09-21T01:22:01.311Z,100.00
2022-09-21T01:24:48.587Z,100.00
2022-09-21T01:27:52.040Z,100.00
2022-09-21T01:30:21.124Z,100.00
2022-09-21T01:33:07.356Z,100.00
2022-09-21T01:35:47.564Z,100.00
2022-09-21T01:38:19.723Z,100.00
2022-09-21T01:40:52.525Z,100.00
2022-09-21T01:43:25.423Z,100.00
2022-09-21T01:45:54.924Z,100.00
2022-09-21T01:48:23.246Z,100.00
2022-09-21T01:50:56.556Z,100.00
2022-09-21T01:53:31.574Z,100.00
2022-09-21T01:56:00.311Z,100.00
2022-09-21T01:58:47.091Z,100.00
2022-09-21T02:01:20.039Z,100.00
2022-09-21T02:03:53.218Z,100.00
2022-09-21T02:06:19.818Z,100.00
2022-09-21T02:08:46.718Z,100.00
2022-09-21T02:11:13.982Z,100.00
2022-09-21T02:13:46.158Z,100.00
2022-09-21T02:16:36.520Z,100.00
2022-09-21T02:19:09.387Z,100.00
2022-09-21T02:21:57.528Z,100.00
2022-09-21T02:24:45.257Z,100.00
2022-09-21T02:27:33.290Z,100.00
2022-09-21T02:30:14.189Z,100.00
2022-09-21T02:32:50.362Z,100.00
2022-09-21T02:35:30.369Z,100.00
2022-09-21T02:38:08.843Z,100.00
2022-09-21T02:40:40.809Z,100.00
2022-09-21T02:43:14.536Z,100.00
2022-09-21T02:45:50.432Z,100.00
2022-09-21T02:48:18.706Z,100.00
2022-09-21T02:50:48.794Z,100.00
2022-09-21T02:53:19.218Z,100.00
2022-09-21T02:55:46.880Z,100.00
2022-09-21T02:58:14.624Z,100.00
2022-09-21T03:00:41.242Z,100.00
2022-09-21T03:03:22.331Z,100.00
2022-09-21T03:05:50.219Z,100.00
2022-09-21T03:08:17.525Z,100.00
2022-09-21T03:10:44.038Z,100.00
2022-09-21T03:13:10.963Z,100.00
2022-09-21T03:15:38.515Z,100.00
2022-09-21T03:18:06.420Z,100.00
2022-09-21T03:20:33.558Z,100.00
2022-09-21T03:23:00.534Z,100.00
2022-09-21T03:25:28.167Z,100.00
2022-09-21T03:27:54.883Z,100.00
2022-09-21T03:30:22.239Z,100.00
2022-09-21T03:32:50.381Z,100.00
2022-09-21T03:35:18.041Z,100.00
2022-09-21T03:37:44.641Z,100.00
2022-09-21T03:40:12.594Z,100.00
2022-09-21T03:42:40.360Z,100.00
2022-09-21T03:45:07.735Z,100.00
2022-09-21T03:47:34.172Z,100.00
2022-09-21T03:50:00.788Z,100.00
2022-09-21T03:52:27.220Z,100.00
2022-09-21T03:54:55.008Z,100.00
2022-09-21T03:57:21.463Z,100.00
2022-09-21T03:59:49.002Z,100.00
2022-09-21T04:02:16.355Z,100.00
2022-09-21T04:04:42.960Z,100.00
2022-09-21T04:07:09.441Z,100.00
2022-09-21T04:09:35.888Z,100.00
2022-09-21T04:12:02.640Z,100.00
2022-09-21T04:14:29.114Z,100.00
2022-09-21T04:16:55.541Z,100.00
2022-09-21T04:19:22.489Z,100.00
2022-09-21T04:21:51.375Z,100.00
2022-09-21T04:24:19.295Z,100.00
2022-09-21T04:26:46.239Z,100.00
2022-09-21T04:29:16.193Z,100.00
2022-09-21T04:31:42.630Z,100.00
2022-09-21T04:34:12.435Z,100.00
2022-09-21T04:36:38.989Z,100.00
2022-09-21T04:39:06.342Z,100.00
2022-09-21T04:41:33.004Z,100.00
2022-09-21T04:43:59.846Z,100.00
2022-09-21T04:46:26.299Z,100.00
2022-09-21T04:48:53.128Z,100.00
2022-09-21T04:51:19.538Z,100.00
2022-09-21T04:53:45.961Z,100.00
2022-09-21T04:56:14.478Z,100.00
2022-09-21T04:58:40.913Z,100.00
2022-09-21T05:01:07.768Z,100.00
2022-09-21T05:03:34.611Z,100.00
2022-09-21T05:06:01.748Z,100.00
2022-09-21T05:08:47.152Z,100.00
2022-09-21T05:11:18.549Z,100.00
2022-09-21T05:13:45.493Z,100.00
2022-09-21T05:16:11.972Z,100.00
2022-09-21T05:18:38.511Z,100.00
2022-09-21T05:21:06.274Z,100.00
2022-09-21T05:23:33.350Z,100.00
2022-09-21T05:26:00.300Z,100.00
2022-09-21T05:28:27.296Z,100.00
2022-09-21T05:31:19.386Z,100.00
2022-09-21T05:33:52.560Z,100.00
2022-09-21T05:36:40.102Z,100.00
2022-09-21T05:39:07.247Z,100.00
2022-09-21T05:41:34.306Z,100.00
2022-09-21T05:44:01.246Z,100.00
2022-09-21T05:46:38.951Z,100.00
2022-09-21T05:49:15.256Z,100.00
2022-09-21T05:51:59.260Z,100.00
2022-09-21T05:54:45.005Z,100.00
2022-09-21T05:57:16.552Z,100.00
2022-09-21T05:59:48.223Z,100.00
2022-09-21T06:02:40.361Z,100.00
2022-09-21T06:05:14.561Z,100.00
2022-09-21T06:07:43.816Z,100.00
2022-09-21T06:10:12.367Z,100.00
2022-09-21T06:12:38.999Z,100.00
2022-09-21T06:15:07.407Z,100.00
2022-09-21T06:17:33.820Z,100.00
2022-09-21T06:20:00.373Z,100.00
2022-09-21T06:22:26.811Z,100.00
2022-09-21T06:24:53.349Z,100.00
2022-09-21T06:27:20.042Z,100.00
2022-09-21T06:29:46.629Z,100.00
2022-09-21T06:32:13.120Z,100.00
2022-09-21T06:34:39.607Z,100.00
2022-09-21T06:37:06.166Z,100.00
2022-09-21T06:39:32.716Z,100.00
2022-09-21T06:41:59.492Z,100.00
2022-09-21T06:44:26.251Z,100.00
2022-09-21T06:46:52.724Z,100.00
2022-09-21T06:49:19.455Z,100.00
2022-09-21T06:51:47.784Z,100.00
2022-09-21T06:54:14.373Z,100.00
2022-09-21T06:56:43.327Z,100.00
2022-09-21T06:59:09.886Z,100.00
2022-09-21T07:01:36.619Z,100.00
2022-09-21T07:04:04.313Z,100.00
2022-09-21T07:06:30.926Z,98.58
2022-09-21T07:11:45.035Z,98.05
2022-09-21T07:14:11.598Z,98.52
2022-09-21T07:16:38.231Z,97.83
2022-09-21T07:19:11.148Z,96.24
2022-09-21T07:21:38.160Z,90.33
2022-09-21T07:24:09.507Z,89.11
2022-09-21T07:26:38.518Z,85.34
2022-09-21T07:29:05.218Z,86.82
2022-09-21T07:31:31.954Z,88.84
2022-09-21T07:33:59.104Z,85.46
2022-09-21T07:36:26.278Z,65.92
2022-09-21T07:38:55.192Z,51.61
2022-09-21T07:41:22.585Z,43.74
2022-09-21T07:43:49.186Z,44.72
2022-09-21T07:46:15.793Z,45.48
2022-09-21T07:48:42.776Z,45.46
2022-09-21T07:51:14.667Z,45.05
2022-09-21T07:53:44.462Z,54.49
2022-09-21T07:56:18.051Z,57.49
2022-09-21T07:59:06.967Z,57.32
2022-09-21T08:01:35.229Z,47.34
2022-09-21T08:04:03.693Z,47.73
2022-09-21T08:06:32.978Z,50.40
2022-09-21T08:09:00.449Z,50.51
2022-09-21T08:11:28.381Z,48.07
2022-09-21T08:13:59.541Z,45.72
2022-09-21T08:16:26.555Z,45.29
2022-09-21T08:18:53.246Z,51.94
2022-09-21T08:21:20.512Z,57.10
2022-09-21T08:23:49.303Z,61.65
2022-09-21T08:26:20.660Z,65.57
2022-09-21T08:28:49.948Z,69.58
2022-09-21T08:31:19.115Z,75.51
2022-09-21T08:33:46.576Z,74.07
2022-09-21T08:36:13.273Z,76.80
2022-09-21T08:38:40.156Z,80.08
2022-09-21T08:41:22.971Z,79.47
2022-09-21T08:43:52.980Z,79.89
2022-09-21T08:46:22.603Z,80.57
2022-09-21T08:49:00.794Z,81.14
2022-09-21T08:51:30.776Z,81.11
2022-09-21T08:54:02.398Z,80.75
2022-09-21T08:56:41.835Z,80.57
2022-09-21T08:59:15.808Z,78.84
2022-09-21T09:01:59.571Z,76.24
2022-09-21T09:04:44.276Z,75.79
2022-09-21T09:07:37.600Z,77.88
2022-09-21T09:10:23.482Z,78.89
2022-09-21T09:13:10.385Z,78.71
2022-09-21T09:15:48.841Z,78.64
2022-09-21T09:18:43.771Z,78.88
2022-09-21T09:21:40.216Z,80.99
2022-09-21T09:24:13.829Z,80.69
2022-09-21T09:26:54.117Z,79.79
2022-09-21T09:29:51.644Z,81.38
2022-09-21T09:32:18.420Z,82.27
2022-09-21T09:34:53.731Z,82.66
2022-09-21T09:37:25.092Z,82.73
2022-09-21T09:39:55.184Z,78.39
2022-09-21T09:42:29.048Z,76.52
2022-09-21T09:45:26.327Z,74.18
2022-09-21T09:48:15.951Z,76.34
2022-09-21T09:50:42.868Z,73.27
2022-09-21T09:53:13.322Z,75.82
2022-09-21T09:55:43.775Z,73.04
2022-09-21T09:58:25.396Z,74.67
2022-09-21T10:00:53.661Z,75.51
2022-09-21T10:03:26.098Z,74.69
2022-09-21T10:05:53.052Z,74.87
2022-09-21T10:08:30.091Z,71.54
2022-09-21T10:10:56.692Z,69.51
2022-09-21T10:13:25.489Z,69.56
2022-09-21T10:15:55.081Z,65.92
2022-09-21T10:18:50.290Z,65.91
2022-09-21T10:21:23.009Z,65.61
2022-09-21T10:24:18.876Z,66.17
2022-09-21T10:26:54.674Z,65.69
2022-09-21T10:29:25.166Z,64.03
2022-09-21T10:32:12.318Z,63.22
2022-09-21T10:34:42.028Z,63.41
2022-09-21T10:37:37.118Z,66.09
2022-09-21T10:40:08.921Z,68.14
2022-09-21T10:42:37.292Z,69.85
2022-09-21T10:45:15.117Z,70.52
2022-09-21T10:47:44.571Z,68.35
2022-09-21T10:50:25.331Z,66.99
2022-09-21T10:52:57.846Z,65.37
2022-09-21T10:55:25.378Z,63.46
2022-09-21T10:57:52.683Z,63.28
2022-09-21T11:00:21.732Z,62.26
2022-09-21T11:02:48.704Z,62.83
2022-09-21T11:05:31.291Z,62.44
2022-09-21T11:08:06.089Z,62.39
2022-09-21T11:10:53.734Z,61.83
2022-09-21T11:13:28.850Z,59.15
2022-09-21T11:16:27.385Z,57.22
2022-09-21T11:19:18.843Z,56.78
2022-09-21T11:22:10.487Z,58.49
2022-09-21T11:25:31.309Z,59.63
2022-09-21T11:28:15.138Z,60.44
2022-09-21T11:31:09.550Z,61.37
2022-09-21T11:33:55.802Z,60.13
2022-09-21T11:36:26.593Z,59.17
2022-09-21T11:39:00.643Z,58.42
2022-09-21T11:41:35.980Z,57.63
2022-09-21T11:44:24.096Z,59.76
2022-09-21T11:46:58.152Z,59.19
2022-09-21T11:50:13.099Z,58.75
2022-09-21T11:52:53.209Z,58.10
2022-09-21T11:55:50.565Z,58.44
2022-09-21T11:58:27.654Z,57.69
2022-09-21T12:01:33.029Z,56.48
2022-09-21T12:04:40.985Z,57.20
2022-09-21T12:07:44.378Z,56.00
2022-09-21T12:10:28.948Z,54.41
2022-09-21T12:13:06.956Z,52.83
2022-09-21T12:15:56.850Z,48.94
2022-09-21T12:18:55.808Z,48.74
2022-09-21T12:21:29.235Z,49.79
2022-09-21T12:24:21.966Z,49.33
2022-09-21T12:26:53.405Z,50.22
2022-09-21T12:29:28.532Z,48.60
2022-09-21T12:32:23.110Z,48.56
2022-09-21T12:34:58.970Z,48.46
2022-09-21T12:37:31.922Z,48.12
2022-09-21T12:40:07.212Z,49.25
2022-09-21T12:42:49.159Z,50.13
2022-09-21T12:45:28.842Z,51.57
2022-09-21T12:48:01.114Z,53.54
2022-09-21T12:50:34.963Z,54.02
2022-09-21T12:53:02.001Z,54.03
2022-09-21T12:55:44.422Z,53.28
2022-09-21T12:58:27.238Z,55.51
2022-09-21T13:01:01.255Z,61.98
2022-09-21T13:03:45.504Z,67.94
2022-09-21T13:06:48.401Z,72.20
2022-09-21T13:09:17.767Z,76.81
2022-09-21T13:11:56.585Z,81.45
2022-09-21T13:14:26.360Z,84.34
2022-09-21T13:16:59.094Z,84.38
2022-09-21T13:19:29.086Z,85.31
2022-09-21T13:22:16.147Z,84.32
2022-09-21T13:24:45.467Z,84.46
2022-09-21T13:27:13.870Z,82.16
2022-09-21T13:29:41.811Z,80.27
2022-09-21T13:32:14.317Z,78.35
2022-09-21T13:34:42.868Z,76.06
2022-09-21T13:37:13.912Z,74.83
2022-09-21T13:39:50.632Z,74.63
2022-09-21T13:42:32.615Z,73.12
2022-09-21T13:45:00.755Z,72.44
2022-09-21T13:47:29.766Z,72.02
2022-09-21T13:50:00.478Z,72.67
2022-09-21T13:52:36.448Z,75.55
2022-09-21T13:55:06.002Z,78.54
2022-09-21T13:57:41.945Z,78.89
2022-09-21T14:00:11.854Z,79.48
2022-09-21T14:02:40.729Z,81.38
2022-09-21T14:05:17.505Z,82.23
2022-09-21T14:07:46.959Z,82.39
2022-09-21T14:10:22.351Z,83.14
2022-09-21T14:12:50.374Z,81.35
2022-09-21T14:15:17.352Z,79.91
2022-09-21T14:17:44.251Z,76.59
2022-09-21T14:20:34.649Z,73.73
2022-09-21T14:23:16.570Z,76.68
2022-09-21T14:25:54.469Z,74.22
2022-09-21T14:28:35.561Z,74.07
2022-09-21T14:31:21.176Z,73.75
2022-09-21T14:33:55.061Z,72.29
2022-09-21T14:36:34.703Z,71.96
2022-09-21T14:39:04.989Z,70.12
2022-09-21T14:41:38.158Z,70.12
2022-09-21T14:44:05.307Z,71.44
2022-09-21T14:46:45.425Z,69.92
2022-09-21T14:49:12.027Z,68.51
2022-09-21T14:52:32.138Z,68.18
2022-09-21T14:55:17.316Z,68.94
2022-09-21T14:57:50.721Z,67.90
2022-09-21T15:00:26.247Z,69.24
2022-09-21T15:03:05.637Z,71.04
2022-09-21T15:05:43.806Z,72.27
2022-09-21T15:08:47.021Z,72.35
2022-09-21T15:11:26.248Z,73.18
2022-09-21T15:14:08.469Z,72.99
2022-09-21T15:16:38.087Z,73.85
2022-09-21T15:19:23.021Z,74.92
2022-09-21T15:21:50.344Z,75.83
2022-09-21T15:24:25.742Z,77.40
2022-09-21T15:26:55.997Z,76.98
2022-09-21T15:29:28.062Z,78.29
2022-09-21T15:31:55.075Z,80.20
2022-09-21T15:34:22.311Z,81.31
2022-09-21T15:36:52.777Z,81.54
2022-09-21T15:39:29.655Z,82.14
2022-09-21T15:42:18.528Z,81.79
2022-09-21T15:44:48.537Z,81.64
2022-09-21T15:47:18.255Z,83.02
2022-09-21T15:49:45.554Z,83.59
2022-09-21T15:52:22.606Z,83.84
2022-09-21T15:54:53.495Z,84.79
2022-09-21T15:57:26.499Z,86.62
2022-09-21T15:59:53.970Z,88.47
2022-09-21T16:02:23.260Z,91.40
2022-09-21T16:04:51.669Z,94.24
2022-09-21T16:07:27.025Z,97.41
2022-09-21T16:09:53.709Z,100.00
2022-09-21T16:12:26.115Z,100.00
2022-09-21T16:15:15.526Z,100.00
2022-09-21T16:17:55.077Z,100.00
2022-09-21T16:20:23.633Z,100.00
2022-09-21T16:22:54.723Z,100.00
2022-09-21T16:25:25.277Z,100.00
2022-09-21T16:27:58.120Z,100.00
2022-09-21T16:30:52.472Z,100.00
2022-09-21T16:33:42.779Z,100.00
2022-09-21T16:36:25.557Z,100.00
2022-09-21T16:38:55.640Z,100.00
2022-09-21T16:41:23.919Z,100.00
2022-09-21T16:43:51.038Z,100.00
2022-09-21T16:46:18.582Z,100.00
2022-09-21T16:48:45.274Z,100.00
2022-09-21T16:51:12.771Z,100.00
2022-09-21T16:53:39.267Z,100.00
2022-09-21T16:56:06.968Z,100.00
2022-09-21T16:58:33.375Z,100.00
2022-09-21T17:01:01.084Z,100.00
2022-09-21T17:03:29.229Z,100.00
2022-09-21T17:05:57.250Z,100.00
2022-09-21T17:08:24.618Z,100.00
2022-09-21T17:10:51.285Z,100.00
2022-09-21T17:13:20.568Z,100.00
2022-09-21T17:15:48.887Z,100.00
2022-09-21T17:18:15.459Z,100.00
2022-09-21T17:20:44.375Z,100.00
2022-09-21T17:23:10.939Z,100.00
2022-09-21T17:25:37.555Z,100.00
2022-09-21T17:28:13.026Z,100.00
2022-09-21T17:30:41.766Z,100.00
2022-09-21T17:33:10.663Z,100.00
2022-09-21T17:35:39.365Z,100.00
2022-09-21T17:38:12.427Z,100.00
2022-09-21T17:40:41.074Z,100.00
2022-09-21T17:43:18.627Z,100.00
2022-09-21T17:45:51.394Z,100.00
2022-09-21T17:48:20.501Z,100.00
2022-09-21T17:50:48.356Z,100.00
2022-09-21T17:53:34.549Z,100.00
2022-09-21T17:56:16.486Z,100.00
2022-09-21T17:59:03.834Z,100.00
2022-09-21T18:01:41.495Z,100.00
2022-09-21T18:04:11.151Z,100.00
2022-09-21T18:06:38.123Z,100.00
2022-09-21T18:09:05.124Z,100.00
2022-09-21T18:11:50.875Z,100.00
2022-09-21T18:14:28.416Z,100.00
2022-09-21T18:17:00.551Z,100.00
2022-09-21T18:19:36.615Z,100.00
2022-09-21T18:22:18.126Z,100.00
2022-09-21T18:24:44.799Z,100.00
2022-09-21T18:27:12.094Z,100.00
2022-09-21T18:29:41.381Z,100.00
2022-09-21T18:32:13.939Z,100.00
2022-09-21T18:35:08.656Z,100.00
2022-09-21T18:37:51.478Z,100.00
2022-09-21T18:40:26.712Z,100.00
2022-09-21T18:42:58.967Z,100.00
2022-09-21T18:45:31.927Z,100.00
2022-09-21T18:48:21.585Z,100.00
2022-09-21T18:51:12.050Z,100.00
2022-09-21T18:53:56.368Z,100.00
2022-09-21T18:56:24.455Z,100.00
2022-09-21T18:58:51.816Z,100.00
2022-09-21T19:01:21.722Z,100.00
2022-09-21T19:03:49.770Z,100.00
2022-09-21T19:06:33.651Z,100.00
2022-09-21T19:09:14.471Z,100.00
2022-09-21T19:12:04.220Z,100.00
2022-09-21T19:14:42.416Z,100.00
2022-09-21T19:17:34.156Z,100.00
2022-09-21T19:20:24.076Z,100.00
2022-09-21T19:22:59.817Z,100.00
2022-09-21T19:25:44.757Z,100.00
2022-09-21T19:28:24.681Z,100.00
2022-09-21T19:31:00.147Z,100.00
2022-09-21T19:33:48.976Z,100.00
2022-09-21T19:36:16.773Z,100.00
2022-09-21T19:38:43.310Z,100.00
2022-09-21T19:41:28.225Z,100.00
2022-09-21T19:44:12.668Z,100.00
2022-09-21T19:46:58.633Z,100.00
2022-09-21T19:49:36.087Z,100.00
2022-09-21T19:52:04.660Z,100.00
2022-09-21T19:54:50.124Z,100.00
2022-09-21T19:57:38.004Z,100.00
2022-09-21T20:00:10.583Z,100.00
2022-09-21T20:02:45.623Z,100.00
2022-09-21T20:05:23.172Z,100.00
2022-09-21T20:08:11.189Z,100.00
2022-09-21T20:10:51.751Z,100.00
2022-09-21T20:13:30.302Z,100.00
2022-09-21T20:16:26.205Z,100.00
2022-09-21T20:19:11.494Z,100.00
2022-09-21T20:21:40.329Z,100.00
2022-09-21T20:24:24.830Z,100.00
2022-09-21T20:26:51.879Z,100.00
2022-09-21T20:29:19.722Z,100.00
2022-09-21T20:31:47.866Z,100.00
2022-09-21T20:34:14.297Z,100.00
2022-09-21T20:36:40.790Z,100.00
2022-09-21T20:39:07.344Z,100.00
2022-09-21T20:41:33.813Z,100.00
2022-09-21T20:44:01.923Z,100.00
2022-09-21T20:46:28.613Z,100.00
2022-09-21T20:49:05.657Z,100.00
2022-09-21T20:51:34.161Z,100.00
2022-09-21T20:54:04.749Z,100.00
2022-09-21T20:56:31.257Z,100.00
2022-09-21T20:58:57.941Z,100.00
2022-09-21T21:01:24.904Z,100.00
2022-09-21T21:03:51.763Z,100.00
2022-09-21T21:06:21.247Z,100.00
2022-09-21T21:08:47.856Z,100.00
2022-09-21T21:11:17.219Z,100.00
2022-09-21T21:13:43.826Z,100.00
2022-09-21T21:16:12.366Z,100.00
2022-09-21T21:18:42.391Z,100.00
2022-09-21T21:21:09.315Z,100.00
2022-09-21T21:23:56.890Z,100.00
2022-09-21T21:26:38.183Z,100.00
2022-09-21T21:29:09.954Z,100.00
2022-09-21T21:31:36.519Z,100.00
2022-09-21T21:34:03.195Z,100.00
2022-09-21T21:36:29.772Z,100.00
2022-09-21T21:38:56.373Z,100.00
2022-09-21T21:41:23.133Z,100.00
2022-09-21T21:43:49.774Z,100.00
2022-09-21T21:46:16.257Z,100.00
2022-09-21T21:48:42.808Z,100.00
2022-09-21T21:51:09.590Z,100.00
2022-09-21T21:53:38.004Z,100.00
2022-09-21T21:56:12.105Z,100.00
2022-09-21T21:58:38.923Z,100.00
2022-09-21T22:01:21.367Z,100.00
2022-09-21T22:03:52.763Z,100.00
2022-09-21T22:06:19.448Z,100.00
2022-09-21T22:08:46.078Z,100.00
2022-09-21T22:11:12.541Z,100.00
2022-09-21T22:13:39.687Z,100.00
2022-09-21T22:16:08.451Z,100.00
2022-09-21T22:18:36.030Z,100.00
2022-09-21T22:21:07.637Z,100.00
2022-09-21T22:23:34.854Z,100.00
2022-09-21T22:26:12.567Z,100.00
2022-09-21T22:28:40.854Z,100.00
2022-09-21T22:31:12.774Z,100.00
2022-09-21T22:33:39.528Z,100.00
2022-09-21T22:36:14.357Z,100.00
2022-09-21T22:38:43.116Z,100.00
2022-09-21T22:41:14.917Z,100.00
2022-09-21T22:43:41.453Z,100.00
2022-09-21T22:46:07.983Z,100.00
2022-09-21T22:48:35.199Z,100.00
2022-09-21T22:51:02.390Z,100.00
2022-09-21T22:53:29.637Z,100.00
2022-09-21T22:56:10.537Z,100.00
2022-09-21T22:58:39.192Z,100.00
2022-09-21T23:01:13.318Z,100.00
2022-09-21T23:03:41.504Z,100.00
2022-09-21T23:06:11.040Z,100.00
2022-09-21T23:08:38.904Z,100.00
2022-09-21T23:11:07.546Z,100.00
2022-09-21T23:13:34.096Z,100.00
2022-09-21T23:16:02.265Z,100.00
2022-09-21T23:18:29.295Z,100.00
2022-09-21T23:21:00.128Z,100.00
2022-09-21T23:23:26.944Z,100.00
2022-09-21T23:26:05.067Z,100.00
2022-09-21T23:28:31.764Z,100.00
2022-09-21T23:31:00.335Z,100.00
2022-09-21T23:33:31.648Z,100.00
2022-09-21T23:35:58.203Z,100.00
2022-09-21T23:38:24.608Z,100.00
2022-09-21T23:40:51.405Z,100.00
2022-09-21T23:43:17.975Z,100.00
2022-09-21T23:45:44.521Z,100.00
2022-09-21T23:48:10.914Z,100.00
2022-09-21T23:50:37.435Z,100.00
2022-09-21T23:53:04.268Z,100.00
2022-09-21T23:55:31.007Z,100.00
2022-09-21T23:57:57.758Z,100.00
